Time;durP1;ratioP1;P1;durP2;ratioP2;P2;SDS_P1;SDS_P2;PMS_P1;PMS_P2;Temp;Humidity;BMP_temperature;BMP_pressure;BME280_temperature;BME280_humidity;BME280_pressure;Samples;Min_cycle;Max_cycle;Signal;HPM_P1;HPM_P2
2021/01/11 00:00:42;;;;;;;19.67;11.57;;;3.40;87.30;;;;;;5074511;28;20447;-66
2021/01/11 00:03:09;;;;;;;16.57;11.50;;;3.40;87.90;;;;;;5073702;28;20451;-66
2021/01/11 00:05:35;;;;;;;17.33;11.13;;;3.40;88.40;;;;;;5073245;28;20487;-67
2021/01/11 00:08:02;;;;;;;18.37;11.03;;;3.50;88.30;;;;;;5073264;28;20458;-66
2021/01/11 00:10:28;;;;;;;14.80;9.73;;;3.50;88.20;;;;;;5073408;28;20467;-66
2021/01/11 00:12:54;;;;;;;17.50;12.20;;;3.40;87.50;;;;;;5073387;28;20443;-66
2021/01/11 00:15:20;;;;;;;20.37;12.50;;;3.40;88.00;;;;;;5073384;28;20465;-66
2021/01/11 00:17:46;;;;;;;19.73;11.00;;;3.40;87.70;;;;;;5073501;28;20447;-66
2021/01/11 00:20:14;;;;;;;16.27;11.30;;;3.40;88.80;;;;;;5077028;28;20452;-66
2021/01/11 00:22:43;;;;;;;19.20;12.77;;;3.40;89.00;;;;;;5080257;28;20448;-66
2021/01/11 00:25:10;;;;;;;16.60;10.50;;;3.40;89.20;;;;;;5080059;28;20541;-66
2021/01/11 00:27:37;;;;;;;19.03;12.77;;;3.40;89.50;;;;;;5079751;28;20940;-66
2021/01/11 00:30:05;;;;;;;22.27;13.67;;;3.40;90.00;;;;;;5079955;28;20448;-66
2021/01/11 00:32:34;;;;;;;19.07;13.93;;;3.40;90.00;;;;;;5079801;28;20440;-66
2021/01/11 00:35:00;;;;;;;19.23;14.13;;;3.40;90.00;;;;;;5079850;28;20514;-66
2021/01/11 00:37:27;;;;;;;22.13;13.60;;;3.30;89.40;;;;;;5079949;28;20459;-66
2021/01/11 00:39:53;;;;;;;18.87;14.03;;;3.30;90.00;;;;;;5079916;28;20767;-66
2021/01/11 00:42:20;;;;;;;20.20;13.87;;;3.30;90.10;;;;;;5080001;28;20443;-66
2021/01/11 00:44:46;;;;;;;23.57;12.70;;;3.20;88.70;;;;;;5080597;28;20501;-66
2021/01/11 00:47:13;;;;;;;17.37;12.87;;;3.20;89.80;;;;;;5079491;28;20559;-66
2021/01/11 00:49:40;;;;;;;20.73;13.57;;;3.20;90.20;;;;;;5079902;28;20451;-66
2021/01/11 00:52:06;;;;;;;20.50;13.30;;;3.20;89.60;;;;;;5079853;28;20439;-66
2021/01/11 00:54:33;;;;;;;16.27;13.97;;;3.10;88.70;;;;;;5079760;28;20482;-66
2021/01/11 00:57:00;;;;;;;18.73;13.77;;;3.10;88.90;;;;;;5080802;28;20467;-66
2021/01/11 00:59:26;;;;;;;19.33;12.00;;;3.10;89.30;;;;;;5079722;28;20822;-66
2021/01/11 01:01:53;;;;;;;17.00;13.20;;;3.10;89.30;;;;;;5079715;28;20437;-66
2021/01/11 01:04:19;;;;;;;19.17;13.53;;;3.10;88.80;;;;;;5079416;28;20772;-66
2021/01/11 01:06:46;;;;;;;21.97;14.63;;;3.10;88.90;;;;;;5079587;28;20517;-66
2021/01/11 01:09:12;;;;;;;16.87;13.73;;;3.20;89.60;;;;;;5079698;28;20900;-66
2021/01/11 01:11:40;;;;;;;24.47;16.60;;;3.20;89.90;;;;;;5079271;28;20460;-66
2021/01/11 01:14:07;;;;;;;24.17;15.07;;;3.20;88.50;;;;;;5079509;28;20478;-66
2021/01/11 01:16:33;;;;;;;24.67;16.43;;;3.20;88.40;;;;;;5079481;28;20463;-66
2021/01/11 01:18:59;;;;;;;27.90;16.53;;;3.10;88.30;;;;;;5079489;28;20458;-65
2021/01/11 01:21:26;;;;;;;26.50;16.40;;;3.10;88.40;;;;;;5079507;28;20455;-65
2021/01/11 01:23:52;;;;;;;26.10;16.50;;;3.00;88.80;;;;;;5079466;28;20428;-65
2021/01/11 01:26:19;;;;;;;21.83;14.17;;;3.10;89.40;;;;;;5079385;28;20470;-66
2021/01/11 01:28:46;;;;;;;20.87;14.67;;;3.10;90.50;;;;;;5079499;28;20490;-66
2021/01/11 01:31:12;;;;;;;21.27;15.37;;;3.20;90.40;;;;;;5077325;28;20439;-66
2021/01/11 01:33:39;;;;;;;21.73;14.40;;;3.20;90.40;;;;;;5076154;28;20483;-66
2021/01/11 01:36:06;;;;;;;24.57;16.00;;;3.20;90.20;;;;;;5076177;28;20542;-66
2021/01/11 01:38:32;;;;;;;22.43;15.87;;;3.20;89.50;;;;;;5075815;28;20946;-66
2021/01/11 01:40:58;;;;;;;23.30;14.80;;;3.20;88.40;;;;;;5076093;28;20440;-66
2021/01/11 01:43:24;;;;;;;23.03;14.97;;;3.20;89.00;;;;;;5076126;28;20432;-66
2021/01/11 01:45:51;;;;;;;23.33;14.97;;;3.20;90.00;;;;;;5075660;28;21034;-66
2021/01/11 01:48:18;;;;;;;25.70;15.73;;;3.20;90.20;;;;;;5075963;28;20448;-66
2021/01/11 01:50:44;;;;;;;23.27;15.83;;;3.20;90.10;;;;;;5075973;28;20853;-66
2021/01/11 01:53:11;;;;;;;26.23;16.57;;;3.30;90.10;;;;;;5075817;28;20454;-66
2021/01/11 01:55:37;;;;;;;26.63;18.53;;;3.30;89.90;;;;;;5075771;28;20468;-66
2021/01/11 01:58:05;;;;;;;24.40;17.27;;;3.30;90.10;;;;;;5075818;28;20440;-66
2021/01/11 02:00:32;;;;;;;28.50;16.27;;;3.40;90.10;;;;;;5075410;28;20953;-66
2021/01/11 02:02:59;;;;;;;24.83;15.70;;;3.40;90.00;;;;;;5075768;28;20444;-66
2021/01/11 02:05:25;;;;;;;26.50;16.17;;;3.40;89.80;;;;;;5075605;28;20822;-66
2021/01/11 02:08:03;;;;;;;25.07;15.23;;;3.40;90.00;;;;;;5075636;28;20453;-66
2021/01/11 02:10:40;;;;;;;21.73;15.60;;;3.50;90.00;;;;;;5075401;28;20513;-66
2021/01/11 02:13:17;;;;;;;19.80;14.70;;;3.50;88.90;;;;;;5075476;28;20459;-66
2021/01/11 02:15:58;;;;;;;20.07;14.57;;;3.50;89.40;;;;;;5075453;28;20528;-66
2021/01/11 02:18:32;;;;;;;22.70;15.40;;;3.50;89.80;;;;;;5075150;28;20898;-66
2021/01/11 02:21:14;;;;;;;20.13;13.23;;;3.50;89.40;;;;;;5075420;28;20446;-66
2021/01/11 02:24:15;;;;;;;17.70;13.13;;;3.60;89.30;;;;;;5075314;28;20498;-66
2021/01/11 02:27:08;;;;;;;17.23;12.30;;;3.60;89.20;;;;;;5075239;28;20458;-66
2021/01/11 02:30:00;;;;;;;16.77;11.87;;;3.60;88.30;;;;;;5074992;28;20794;-66
2021/01/11 02:32:29;;;;;;;15.30;11.67;;;3.50;88.30;;;;;;5075342;28;20429;-66
2021/01/11 02:34:57;;;;;;;16.60;11.83;;;3.50;88.40;;;;;;5074940;28;20570;-67
2021/01/11 02:37:24;;;;;;;17.37;11.90;;;3.50;88.70;;;;;;5075122;28;20479;-66
2021/01/11 02:39:51;;;;;;;18.43;11.70;;;3.60;89.10;;;;;;5075001;28;20448;-66
2021/01/11 02:42:17;;;;;;;24.27;14.67;;;3.60;88.60;;;;;;5074754;28;20875;-66
2021/01/11 02:44:43;;;;;;;18.90;12.40;;;3.60;88.50;;;;;;5074893;28;20444;-66
2021/01/11 02:47:11;;;;;;;24.37;11.97;;;3.60;88.00;;;;;;5074475;28;20977;-66
2021/01/11 02:49:41;;;;;;;24.60;13.00;;;3.50;87.40;;;;;;5074524;28;20440;-66
2021/01/11 02:52:15;;;;;;;22.80;12.50;;;3.50;87.60;;;;;;5075299;28;20428;-66
2021/01/11 02:54:46;;;;;;;19.20;14.03;;;3.50;87.50;;;;;;5074341;28;20464;-66
2021/01/11 02:57:27;;;;;;;16.97;12.00;;;3.40;87.40;;;;;;5074608;28;20490;-66
2021/01/11 02:59:58;;;;;;;21.20;13.57;;;3.40;87.30;;;;;;5074859;28;20434;-66
2021/01/11 03:02:28;;;;;;;20.13;12.70;;;3.30;87.30;;;;;;5074606;28;20432;-68
2021/01/11 03:04:55;;;;;;;21.80;15.00;;;3.30;87.50;;;;;;5074374;28;20929;-67
2021/01/11 03:07:21;;;;;;;23.10;16.30;;;3.20;88.20;;;;;;5074402;28;20451;-66
2021/01/11 03:09:47;;;;;;;25.00;17.10;;;3.20;88.30;;;;;;5074168;28;20442;-66
2021/01/11 03:12:14;;;;;;;27.37;18.73;;;3.10;88.70;;;;;;5074436;28;20442;-66
2021/01/11 03:14:40;;;;;;;28.90;18.73;;;3.00;89.70;;;;;;5074232;28;20846;-66
2021/01/11 03:17:07;;;;;;;36.60;21.83;;;2.90;90.20;;;;;;5074195;28;20462;-66
2021/01/11 03:19:34;;;;;;;35.40;20.73;;;2.90;90.50;;;;;;5074249;28;20450;-66
2021/01/11 03:22:01;;;;;;;36.80;22.10;;;2.70;90.80;;;;;;5073847;28;20948;-66
2021/01/11 03:24:27;;;;;;;34.77;23.50;;;2.70;91.20;;;;;;5074594;28;20512;-70
2021/01/11 03:26:57;;;;;;;33.27;23.40;;;2.60;91.30;;;;;;5074024;28;20479;-70
2021/01/11 03:29:23;;;;;;;38.07;22.60;;;2.60;91.50;;;;;;5074081;28;20431;-70
2021/01/11 03:31:49;;;;;;;39.73;24.70;;;2.60;91.60;;;;;;5073668;28;20451;-70
2021/01/11 03:34:15;;;;;;;43.13;26.80;;;2.50;91.80;;;;;;5073861;28;20532;-70
2021/01/11 03:36:44;;;;;;;32.90;23.97;;;2.50;92.00;;;;;;5073539;28;20450;-70
2021/01/11 03:39:11;;;;;;;39.47;24.47;;;2.50;92.10;;;;;;5073815;28;20447;-70
2021/01/11 03:41:38;;;;;;;39.20;24.13;;;2.50;92.20;;;;;;5073797;28;20448;-70
2021/01/11 03:44:05;;;;;;;41.30;23.87;;;2.60;92.30;;;;;;5073753;28;20494;-70
2021/01/11 03:46:32;;;;;;;42.93;23.73;;;2.60;92.20;;;;;;5073846;28;20467;-70
2021/01/11 03:48:58;;;;;;;37.10;23.13;;;2.60;92.20;;;;;;5073408;28;20446;-70
2021/01/11 03:51:25;;;;;;;35.53;22.43;;;2.50;92.10;;;;;;5073424;28;20458;-70
2021/01/11 03:53:53;;;;;;;38.17;24.50;;;2.50;92.30;;;;;;5073071;28;20995;-70
2021/01/11 03:56:19;;;;;;;36.27;23.30;;;2.50;92.50;;;;;;5073330;28;20470;-70
2021/01/11 03:58:45;;;;;;;39.57;22.37;;;2.40;92.50;;;;;;5073600;28;20453;-70
2021/01/11 04:01:11;;;;;;;38.73;23.10;;;2.40;92.60;;;;;;5073585;28;20821;-70
2021/01/11 04:03:37;;;;;;;36.63;22.53;;;2.50;92.70;;;;;;5073616;28;20543;-70
2021/01/11 04:06:04;;;;;;;37.90;23.33;;;2.50;92.60;;;;;;5073461;28;20463;-70
2021/01/11 04:08:30;;;;;;;33.53;22.37;;;2.40;92.60;;;;;;5073159;28;20960;-70
2021/01/11 04:10:58;;;;;;;32.80;20.27;;;2.50;92.70;;;;;;5073428;28;20457;-70
2021/01/11 04:13:24;;;;;;;33.90;20.10;;;2.40;92.50;;;;;;5073372;28;20815;-70
2021/01/11 04:15:50;;;;;;;40.13;21.67;;;2.50;92.60;;;;;;5073016;28;20836;-70
2021/01/11 04:18:16;;;;;;;34.10;22.50;;;2.40;92.60;;;;;;5073394;28;20448;-70
2021/01/11 04:20:43;;;;;;;31.33;20.17;;;2.50;92.60;;;;;;5073348;28;20449;-70
2021/01/11 04:23:09;;;;;;;33.80;19.90;;;2.50;92.60;;;;;;5073356;28;20437;-70
2021/01/11 04:25:35;;;;;;;30.20;19.07;;;2.60;92.70;;;;;;5073331;28;20474;-70
2021/01/11 04:28:04;;;;;;;37.40;20.27;;;2.60;92.50;;;;;;5073279;28;20488;-70
2021/01/11 04:30:30;;;;;;;34.20;20.17;;;2.60;92.20;;;;;;5073277;28;20448;-70
2021/01/11 04:32:57;;;;;;;40.00;22.90;;;2.60;92.30;;;;;;5073315;28;20444;-70
2021/01/11 04:35:25;;;;;;;32.40;21.47;;;2.60;92.30;;;;;;5073079;28;20491;-70
2021/01/11 04:37:52;;;;;;;29.73;19.87;;;2.60;92.20;;;;;;5073766;28;20470;-70
2021/01/11 04:40:18;;;;;;;35.30;21.23;;;2.60;92.30;;;;;;5073729;28;20446;-70
2021/01/11 04:42:51;;;;;;;32.57;20.70;;;2.60;92.20;;;;;;5072814;28;20930;-70
2021/01/11 04:45:19;;;;;;;33.80;21.70;;;2.60;92.20;;;;;;5073122;28;20455;-70
2021/01/11 04:47:46;;;;;;;33.80;21.03;;;2.60;92.20;;;;;;5073124;28;20444;-70
2021/01/11 04:50:12;;;;;;;36.73;21.10;;;2.60;92.00;;;;;;5073103;28;20450;-70
2021/01/11 04:52:39;;;;;;;30.20;19.67;;;2.60;92.20;;;;;;5073099;28;20862;-70
2021/01/11 04:55:07;;;;;;;33.40;22.93;;;2.60;92.70;;;;;;5072842;28;20930;-70
2021/01/11 04:57:36;;;;;;;29.87;20.37;;;2.60;92.40;;;;;;5072984;28;20451;-70
2021/01/11 05:00:07;;;;;;;35.20;22.30;;;2.70;92.50;;;;;;5073081;28;20453;-70
2021/01/11 05:02:38;;;;;;;34.37;22.30;;;2.70;92.30;;;;;;5073046;28;20793;-70
2021/01/11 05:05:04;;;;;;;33.23;21.57;;;2.70;92.10;;;;;;5072874;28;20836;-70
2021/01/11 05:07:32;;;;;;;34.47;23.23;;;2.70;92.20;;;;;;5074859;28;20445;-70
2021/01/11 05:09:58;;;;;;;30.60;20.63;;;2.70;92.20;;;;;;5076793;28;20486;-70
2021/01/11 05:12:26;;;;;;;31.47;20.60;;;2.70;92.20;;;;;;5077133;28;20437;-70
2021/01/11 05:15:17;;;;;;;35.33;21.63;;;2.70;92.30;;;;;;5076339;28;20488;-70
2021/01/11 05:17:45;;;;;;;30.47;23.07;;;2.70;92.20;;;;;;5076379;28;20440;-70
2021/01/11 05:20:14;;;;;;;37.77;24.07;;;2.70;92.20;;;;;;5076446;28;20449;-70
2021/01/11 05:22:47;;;;;;;36.40;23.40;;;2.70;92.20;;;;;;5076402;28;20817;-70
2021/01/11 05:25:14;;;;;;;34.87;24.93;;;2.60;92.20;;;;;;5076296;28;20463;-70
2021/01/11 05:27:40;;;;;;;36.13;24.60;;;2.60;92.70;;;;;;5076386;28;20442;-70
2021/01/11 05:30:10;;;;;;;33.97;24.27;;;2.60;92.50;;;;;;5076273;28;20506;-70
2021/01/11 05:32:37;;;;;;;46.97;25.23;;;2.60;92.50;;;;;;5076545;28;20787;-70
2021/01/11 05:35:05;;;;;;;35.30;24.23;;;2.60;92.60;;;;;;5075838;28;21027;-70
2021/01/11 05:37:36;;;;;;;39.30;24.40;;;2.60;92.40;;;;;;5076194;28;20443;-70
2021/01/11 05:40:10;;;;;;;41.70;26.67;;;2.60;92.50;;;;;;5076189;28;20428;-70
2021/01/11 05:42:38;;;;;;;36.30;23.03;;;2.60;92.60;;;;;;5076578;28;20434;-70
2021/01/11 05:45:09;;;;;;;34.87;23.10;;;2.60;92.60;;;;;;5076132;28;20448;-70
2021/01/11 05:47:35;;;;;;;30.73;21.70;;;2.60;92.60;;;;;;5076168;28;20492;-71
2021/01/11 05:50:08;;;;;;;37.83;22.17;;;2.60;92.70;;;;;;5075678;28;20462;-70
2021/01/11 05:52:34;;;;;;;34.20;21.70;;;2.60;92.60;;;;;;5076243;28;20426;-70
2021/01/11 05:55:19;;;;;;;35.40;20.97;;;2.60;92.70;;;;;;5075725;28;20479;-70
2021/01/11 05:57:53;;;;;;;30.63;20.53;;;2.70;92.60;;;;;;5075834;28;20426;-70
2021/01/11 06:00:20;;;;;;;30.60;20.80;;;2.70;92.50;;;;;;5075806;28;20451;-70
2021/01/11 06:02:48;;;;;;;30.73;19.93;;;2.70;92.60;;;;;;5075798;28;20851;-70
2021/01/11 06:05:17;;;;;;;28.60;20.80;;;2.80;92.60;;;;;;5075733;28;20470;-70
2021/01/11 06:07:44;;;;;;;27.97;18.33;;;2.80;92.40;;;;;;5075653;28;20426;-70
2021/01/11 06:10:12;;;;;;;25.77;18.60;;;2.80;92.30;;;;;;5075542;28;20459;-69
2021/01/11 06:12:40;;;;;;;28.33;20.13;;;2.80;92.20;;;;;;5075508;28;20461;-70
2021/01/11 06:15:09;;;;;;;30.93;21.00;;;2.80;92.20;;;;;;5075319;28;20906;-70
2021/01/11 06:17:35;;;;;;;28.73;21.73;;;2.90;92.20;;;;;;5074670;28;20470;-71
2021/01/11 06:20:01;;;;;;;32.07;21.63;;;2.90;92.20;;;;;;5075675;28;20447;-71
2021/01/11 06:23:02;;;;;;;32.73;23.23;;;3.00;92.30;;;;;;5075433;28;20436;-70
2021/01/11 06:25:35;;;;;;;34.27;21.87;;;3.00;92.30;;;;;;5075826;28;20837;-70
2021/01/11 06:28:03;;;;;;;29.63;21.00;;;3.00;91.90;;;;;;5075163;28;20458;-70
2021/01/11 06:30:38;;;;;;;33.30;21.00;;;3.10;91.70;;;;;;5075162;28;20444;-70
2021/01/11 06:33:17;;;;;;;26.00;20.47;;;3.10;91.50;;;;;;5075257;28;20425;-71
2021/01/11 06:35:45;;;;;;;26.20;19.53;;;3.00;91.30;;;;;;5074868;28;20573;-70
2021/01/11 06:38:19;;;;;;;26.20;17.30;;;3.00;91.40;;;;;;5075170;28;20450;-70
2021/01/11 06:40:47;;;;;;;25.67;18.50;;;3.00;91.30;;;;;;5074623;28;20917;-70
2021/01/11 06:43:15;;;;;;;25.27;18.20;;;3.00;91.00;;;;;;5074708;28;20866;-70
2021/01/11 06:45:43;;;;;;;25.07;17.73;;;3.00;91.10;;;;;;5074867;28;20835;-70
2021/01/11 06:48:12;;;;;;;23.20;17.80;;;3.00;90.70;;;;;;5075124;28;20432;-70
2021/01/11 06:50:39;;;;;;;26.30;16.60;;;3.00;90.80;;;;;;5074770;28;20450;-70
2021/01/11 06:53:06;;;;;;;21.13;15.27;;;3.00;90.40;;;;;;5075004;28;20503;-70
2021/01/11 06:55:33;;;;;;;20.80;15.20;;;3.00;90.50;;;;;;5074661;28;20495;-70
2021/01/11 06:58:00;;;;;;;20.87;15.10;;;3.00;90.40;;;;;;5074639;28;20457;-70
2021/01/11 07:00:32;;;;;;;20.77;15.83;;;3.00;90.60;;;;;;5074475;28;20461;-70
2021/01/11 07:02:58;;;;;;;21.03;14.37;;;3.00;90.60;;;;;;5074647;28;20434;-70
2021/01/11 07:05:44;;;;;;;23.60;14.47;;;3.00;90.60;;;;;;5074539;28;20469;-70
2021/01/11 07:08:14;;;;;;;21.77;14.93;;;3.00;90.60;;;;;;5074434;28;20442;-70
2021/01/11 07:10:43;;;;;;;20.43;15.23;;;3.00;90.60;;;;;;5074160;28;20990;-70
2021/01/11 07:13:25;;;;;;;19.97;14.80;;;3.10;90.60;;;;;;5074204;28;20454;-70
2021/01/11 07:16:18;;;;;;;23.60;15.60;;;3.00;90.60;;;;;;5074223;28;20459;-70
2021/01/11 07:18:49;;;;;;;22.83;15.63;;;3.10;90.50;;;;;;5026959;28;20859;-70
2021/01/11 07:21:16;;;;;;;26.77;17.70;;;3.10;90.60;;;;;;5074236;28;20465;-70
2021/01/11 07:23:44;;;;;;;28.53;17.00;;;3.10;90.60;;;;;;5074179;28;20454;-70
2021/01/11 07:26:13;;;;;;;25.23;18.67;;;3.10;90.60;;;;;;5074034;28;20468;-70
2021/01/11 07:28:39;;;;;;;24.50;17.27;;;3.10;90.70;;;;;;5073851;28;20439;-70
2021/01/11 07:31:06;;;;;;;28.00;19.50;;;3.10;90.80;;;;;;5073354;28;20945;-70
2021/01/11 07:33:32;;;;;;;31.20;18.93;;;3.10;90.80;;;;;;5074078;28;20814;-70
2021/01/11 07:35:58;;;;;;;32.63;18.57;;;3.00;90.80;;;;;;5073886;28;20474;-70
2021/01/11 07:38:25;;;;;;;29.73;20.10;;;3.00;91.20;;;;;;5073769;28;20469;-70
2021/01/11 07:40:58;;;;;;;29.03;21.17;;;3.00;91.30;;;;;;5073802;28;20451;-70
2021/01/11 07:43:25;;;;;;;29.97;20.20;;;3.00;91.20;;;;;;5073399;28;20436;-70
2021/01/11 07:46:02;;;;;;;30.80;19.40;;;3.10;91.20;;;;;;5073525;28;20462;-70
2021/01/11 07:48:28;;;;;;;33.47;21.63;;;3.00;91.20;;;;;;5073690;28;20511;-70
2021/01/11 07:51:06;;;;;;;33.60;22.00;;;3.00;91.30;;;;;;5073594;28;20458;-70
2021/01/11 07:53:36;;;;;;;32.03;18.77;;;3.10;91.50;;;;;;5073462;28;20438;-70
2021/01/11 07:56:06;;;;;;;30.47;17.83;;;3.00;91.50;;;;;;5073420;28;20503;-70
2021/01/11 07:58:34;;;;;;;27.83;16.20;;;3.10;91.40;;;;;;5073467;28;20448;-70
2021/01/11 08:01:04;;;;;;;28.37;17.10;;;3.10;91.20;;;;;;5073503;28;20450;-70
2021/01/11 08:03:31;;;;;;;25.10;18.03;;;3.00;90.90;;;;;;5073408;28;20454;-70
2021/01/11 08:06:01;;;;;;;26.03;15.97;;;3.00;90.90;;;;;;5073383;28;20467;-70
2021/01/11 08:08:33;;;;;;;24.70;15.87;;;3.00;91.10;;;;;;5073523;28;20450;-70
2021/01/11 08:11:03;;;;;;;26.70;18.53;;;3.00;91.10;;;;;;5073459;28;20473;-70
2021/01/11 08:13:30;;;;;;;23.03;17.40;;;3.00;91.30;;;;;;5073436;28;20432;-70
2021/01/11 08:16:10;;;;;;;26.90;18.40;;;3.00;91.10;;;;;;5073299;28;20467;-70
2021/01/11 08:18:38;;;;;;;25.00;16.47;;;3.00;91.30;;;;;;5073413;28;20524;-70
2021/01/11 08:21:06;;;;;;;23.70;15.43;;;3.10;91.10;;;;;;5073526;28;20452;-70
2021/01/11 08:23:32;;;;;;;24.80;16.70;;;3.10;90.90;;;;;;5073394;28;20505;-70
2021/01/11 08:26:02;;;;;;;21.13;13.67;;;3.10;90.80;;;;;;5073238;28;20485;-70
2021/01/11 08:28:29;;;;;;;22.70;14.53;;;3.10;90.70;;;;;;5073301;28;20431;-70
2021/01/11 08:30:59;;;;;;;22.60;14.97;;;3.10;90.80;;;;;;5073282;28;20427;-70
2021/01/11 08:33:25;;;;;;;23.30;16.13;;;3.10;90.70;;;;;;5073242;28;20459;-70
2021/01/11 08:35:51;;;;;;;24.23;15.97;;;3.10;90.50;;;;;;5073189;28;20491;-70
2021/01/11 08:38:18;;;;;;;26.73;16.87;;;3.10;90.60;;;;;;5073232;28;20451;-70
2021/01/11 08:40:49;;;;;;;23.67;16.07;;;3.10;90.70;;;;;;5074259;28;20446;-70
2021/01/11 08:43:19;;;;;;;23.77;16.03;;;3.20;90.80;;;;;;5077321;28;20438;-70
2021/01/11 08:45:51;;;;;;;23.90;14.90;;;3.20;90.70;;;;;;5076935;28;20961;-70
2021/01/11 08:48:25;;;;;;;24.43;16.13;;;3.20;90.60;;;;;;5077242;28;20455;-70
2021/01/11 08:50:58;;;;;;;27.43;17.63;;;3.30;90.60;;;;;;5076808;28;20461;-70
2021/01/11 08:53:26;;;;;;;26.40;16.30;;;3.20;90.50;;;;;;5077273;28;20439;-70
2021/01/11 08:56:00;;;;;;;25.80;15.57;;;3.30;90.60;;;;;;5077096;28;20484;-70
2021/01/11 08:58:27;;;;;;;25.60;15.87;;;3.30;90.60;;;;;;5076717;28;20915;-70
2021/01/11 09:01:08;;;;;;;22.93;15.37;;;3.30;90.60;;;;;;5076960;28;20452;-70
2021/01/11 09:03:42;;;;;;;24.23;15.40;;;3.40;90.60;;;;;;5076823;28;20464;-70
2021/01/11 09:06:09;;;;;;;27.70;15.97;;;3.40;90.50;;;;;;5077067;28;20826;-70
2021/01/11 09:08:35;;;;;;;22.87;14.70;;;3.40;90.50;;;;;;5076700;28;20503;-70
2021/01/11 09:11:08;;;;;;;24.73;15.40;;;3.50;90.50;;;;;;5076420;28;20456;-70
2021/01/11 09:13:35;;;;;;;24.20;15.30;;;3.50;90.40;;;;;;5076670;28;20430;-70
2021/01/11 09:16:11;;;;;;;22.77;14.70;;;3.50;90.10;;;;;;5076467;28;20900;-70
2021/01/11 09:18:37;;;;;;;20.30;14.50;;;3.40;90.20;;;;;;5076582;28;20470;-70
2021/01/11 09:21:07;;;;;;;20.93;14.87;;;3.40;90.40;;;;;;5076447;28;20448;-70
2021/01/11 09:23:33;;;;;;;19.10;13.53;;;3.40;90.40;;;;;;5076513;28;20447;-70
2021/01/11 09:26:00;;;;;;;22.27;14.67;;;3.30;90.50;;;;;;5076376;28;20496;-71
2021/01/11 09:28:27;;;;;;;19.47;12.93;;;3.30;90.70;;;;;;5076323;28;20516;-70
2021/01/11 09:30:54;;;;;;;21.87;14.77;;;3.30;90.70;;;;;;5076267;28;20500;-70
2021/01/11 09:33:20;;;;;;;19.20;13.60;;;3.40;90.60;;;;;;5076329;28;20433;-70
2021/01/11 09:35:47;;;;;;;23.93;14.67;;;3.40;90.70;;;;;;5076120;28;20893;-70
2021/01/11 09:38:15;;;;;;;23.90;15.87;;;3.30;90.60;;;;;;5076203;28;20814;-70
2021/01/11 09:40:41;;;;;;;24.97;15.40;;;3.40;90.70;;;;;;5076112;28;20450;-70
2021/01/11 09:43:08;;;;;;;23.70;15.20;;;3.40;90.90;;;;;;5076102;28;20905;-70
2021/01/11 09:45:35;;;;;;;21.47;14.23;;;3.40;90.80;;;;;;5075982;28;20832;-70
2021/01/11 09:48:01;;;;;;;20.07;13.33;;;3.40;90.80;;;;;;5076216;28;20458;-70
2021/01/11 09:50:27;;;;;;;18.37;13.27;;;3.50;90.90;;;;;;5075952;28;20501;-71
2021/01/11 09:52:55;;;;;;;18.80;14.10;;;3.50;90.90;;;;;;5074795;28;20783;-71
2021/01/11 09:55:22;;;;;;;23.03;12.93;;;3.50;90.80;;;;;;5075420;28;21058;-70
2021/01/11 09:57:48;;;;;;;19.50;14.40;;;3.60;90.80;;;;;;5076028;28;20436;-70
2021/01/11 10:00:16;;;;;;;17.87;12.67;;;3.60;90.70;;;;;;5075841;28;20462;-70
2021/01/11 10:02:46;;;;;;;19.10;12.73;;;3.60;90.60;;;;;;5075587;28;20437;-70
2021/01/11 10:05:14;;;;;;;22.57;13.43;;;3.60;90.60;;;;;;5075663;28;20431;-70
2021/01/11 10:07:40;;;;;;;18.13;12.80;;;3.70;90.60;;;;;;5076004;28;20812;-70
2021/01/11 10:10:07;;;;;;;18.73;13.73;;;3.70;90.50;;;;;;5075429;28;20463;-70
2021/01/11 10:12:34;;;;;;;20.43;13.87;;;3.70;90.50;;;;;;5075620;28;20440;-70
2021/01/11 10:15:01;;;;;;;17.03;12.03;;;3.70;90.40;;;;;;5075374;28;20472;-70
2021/01/11 10:17:27;;;;;;;18.90;12.33;;;3.70;90.60;;;;;;5075104;28;20455;-71
2021/01/11 10:19:53;;;;;;;19.63;12.50;;;3.70;90.70;;;;;;5075505;28;20437;-70
2021/01/11 10:22:19;;;;;;;22.07;13.27;;;3.70;90.70;;;;;;5076208;28;20429;-67
2021/01/11 10:24:48;;;;;;;17.70;13.70;;;3.80;90.70;;;;;;5075048;28;20793;-66
2021/01/11 10:27:14;;;;;;;19.20;13.40;;;3.80;90.80;;;;;;5075262;28;20540;-66
2021/01/11 10:29:41;;;;;;;19.37;12.63;;;3.80;90.60;;;;;;5075217;28;20475;-67
2021/01/11 10:32:08;;;;;;;17.00;12.10;;;3.80;90.50;;;;;;5075148;28;20475;-66
2021/01/11 10:34:35;;;;;;;18.70;12.10;;;3.80;90.40;;;;;;5074794;28;20491;-67
2021/01/11 10:37:01;;;;;;;17.63;12.30;;;3.80;90.50;;;;;;5074969;28;20479;-66
2021/01/11 10:39:27;;;;;;;16.53;12.40;;;3.80;90.70;;;;;;5074642;28;20938;-67
2021/01/11 10:41:56;;;;;;;16.27;11.20;;;3.90;90.70;;;;;;5074958;28;20440;-67
2021/01/11 10:44:23;;;;;;;20.50;13.33;;;3.90;90.70;;;;;;5074973;28;20440;-66
2021/01/11 10:46:51;;;;;;;21.13;13.70;;;3.80;90.60;;;;;;5074813;28;20468;-66
2021/01/11 10:49:17;;;;;;;18.33;12.90;;;3.80;90.70;;;;;;5074815;28;20448;-66
2021/01/11 10:51:43;;;;;;;16.13;12.40;;;3.80;90.80;;;;;;5074834;28;20449;-67
2021/01/11 10:54:10;;;;;;;18.50;13.60;;;3.90;90.90;;;;;;5074658;28;20492;-67
2021/01/11 10:56:36;;;;;;;17.43;12.30;;;3.80;90.90;;;;;;5074533;28;20474;-67
2021/01/11 10:59:02;;;;;;;20.33;12.60;;;3.90;91.00;;;;;;5074391;28;20495;-67
2021/01/11 11:01:29;;;;;;;18.03;13.20;;;3.80;90.90;;;;;;5074566;28;20445;-67
2021/01/11 11:03:56;;;;;;;16.80;12.30;;;3.80;90.90;;;;;;5074112;28;20444;-67
2021/01/11 11:06:25;;;;;;;15.60;11.60;;;3.90;91.00;;;;;;5074447;28;20611;-67
2021/01/11 11:08:51;;;;;;;15.23;11.23;;;4.00;90.90;;;;;;5074505;28;20443;-67
2021/01/11 11:11:18;;;;;;;20.70;12.43;;;4.00;90.80;;;;;;5074329;28;20463;-67
2021/01/11 11:13:44;;;;;;;16.97;12.83;;;4.00;90.70;;;;;;5074127;28;20447;-67
2021/01/11 11:16:11;;;;;;;16.03;11.00;;;4.10;90.80;;;;;;5074182;28;20485;-66
2021/01/11 11:18:39;;;;;;;16.13;12.23;;;4.10;90.90;;;;;;5074359;28;20452;-66
2021/01/11 11:21:07;;;;;;;15.80;11.67;;;4.10;90.70;;;;;;5074309;28;20444;-66
2021/01/11 11:23:34;;;;;;;15.97;11.77;;;4.20;90.70;;;;;;5074257;28;20435;-67
2021/01/11 11:26:00;;;;;;;15.40;11.83;;;4.20;90.50;;;;;;5074088;28;20464;-67
2021/01/11 11:28:27;;;;;;;15.00;11.80;;;4.20;90.70;;;;;;5074091;28;20454;-67
2021/01/11 11:30:53;;;;;;;16.87;11.60;;;4.20;90.70;;;;;;5074022;28;20448;-67
2021/01/11 11:33:19;;;;;;;14.23;11.43;;;4.20;90.80;;;;;;5073981;28;20456;-67
2021/01/11 11:35:46;;;;;;;15.70;11.00;;;4.20;90.70;;;;;;5073781;28;20485;-67
2021/01/11 11:38:13;;;;;;;16.80;12.43;;;4.30;90.80;;;;;;5073899;28;20502;-67
2021/01/11 11:40:39;;;;;;;16.40;11.17;;;4.30;90.70;;;;;;5073523;28;20963;-67
2021/01/11 11:43:06;;;;;;;13.30;10.80;;;4.40;90.70;;;;;;5074148;28;20440;-67
2021/01/11 11:45:32;;;;;;;15.40;11.70;;;4.40;90.60;;;;;;5073742;28;20464;-66
2021/01/11 11:47:59;;;;;;;14.03;10.97;;;4.50;90.60;;;;;;5073433;28;20825;-66
2021/01/11 11:50:25;;;;;;;16.03;12.57;;;4.50;90.40;;;;;;5074054;28;20429;-66
2021/01/11 11:52:52;;;;;;;13.80;11.80;;;4.50;90.40;;;;;;5073706;28;20494;-66
2021/01/11 11:55:19;;;;;;;17.03;12.00;;;4.50;90.50;;;;;;5074449;28;20484;-67
2021/01/11 11:57:46;;;;;;;16.90;11.80;;;4.60;90.40;;;;;;5073675;28;20444;-67
2021/01/11 12:00:15;;;;;;;14.40;11.30;;;4.60;90.40;;;;;;5073428;28;20502;-67
2021/01/11 12:02:41;;;;;;;14.40;11.40;;;4.60;90.50;;;;;;5073585;28;20436;-67
2021/01/11 12:05:09;;;;;;;15.10;10.03;;;4.60;90.50;;;;;;5073731;28;20448;-68
2021/01/11 12:07:35;;;;;;;15.27;10.63;;;4.60;90.60;;;;;;5073618;28;20441;-67
2021/01/11 12:10:01;;;;;;;14.43;10.70;;;4.70;90.60;;;;;;5073157;28;21000;-67
2021/01/11 12:12:28;;;;;;;13.47;10.50;;;4.70;90.50;;;;;;5073269;28;20463;-67
2021/01/11 12:14:54;;;;;;;14.70;11.07;;;4.80;90.50;;;;;;5072853;28;20476;-67
2021/01/11 12:17:21;;;;;;;13.70;10.10;;;4.80;90.50;;;;;;5073002;28;20454;-67
2021/01/11 12:19:47;;;;;;;19.60;11.80;;;4.90;90.30;;;;;;5073635;28;20452;-67
2021/01/11 12:22:13;;;;;;;16.23;11.20;;;4.90;90.20;;;;;;5073534;28;20437;-67
2021/01/11 12:24:39;;;;;;;15.77;12.30;;;4.90;90.20;;;;;;5073314;28;20445;-67
2021/01/11 12:27:07;;;;;;;15.00;12.07;;;4.90;90.30;;;;;;5073378;28;20522;-67
2021/01/11 12:29:34;;;;;;;21.80;11.83;;;5.00;90.20;;;;;;5073061;28;21019;-67
2021/01/11 12:32:04;;;;;;;14.80;11.03;;;5.00;90.20;;;;;;5073285;28;20440;-67
2021/01/11 12:34:33;;;;;;;17.07;10.93;;;5.00;90.30;;;;;;5073205;28;20477;-67
2021/01/11 12:37:00;;;;;;;14.43;10.20;;;5.00;90.20;;;;;;5073204;28;20468;-67
2021/01/11 12:39:26;;;;;;;14.00;10.40;;;5.10;90.30;;;;;;5073224;28;20448;-67
2021/01/11 12:41:52;;;;;;;11.80;9.40;;;5.10;90.30;;;;;;5072892;28;20938;-67